createdAt,value
2022-11-10T00:01:41.366Z,1000.59
2022-11-10T00:06:45.615Z,1000.59
2022-11-10T00:11:49.679Z,1000.67
2022-11-10T00:16:53.850Z,1000.71
2022-11-10T00:21:58.068Z,1000.81
2022-11-10T00:27:02.151Z,1000.69
2022-11-10T00:32:06.555Z,1000.64
2022-11-10T00:37:10.475Z,1000.72
2022-11-10T00:42:14.660Z,1000.75
2022-11-10T00:47:18.815Z,1000.68
2022-11-10T00:52:23.072Z,1000.71
2022-11-10T00:57:27.109Z,1000.64
2022-11-10T01:02:31.291Z,1000.47
2022-11-10T01:07:35.462Z,1000.29
2022-11-10T01:12:39.585Z,1000.25
2022-11-10T01:17:43.745Z,1000.11
2022-11-10T01:22:47.924Z,1000.12
2022-11-10T01:27:52.065Z,1000.29
2022-11-10T01:32:56.259Z,1000.34
2022-11-10T01:38:00.424Z,1000.40
2022-11-10T01:43:04.565Z,1000.35
2022-11-10T01:48:08.726Z,1000.27
2022-11-10T01:53:12.918Z,1000.18
2022-11-10T01:58:17.026Z,1000.17
2022-11-10T02:03:21.498Z,1000.20
2022-11-10T02:08:25.375Z,1000.23
2022-11-10T02:13:29.551Z,1000.27
2022-11-10T02:18:33.715Z,1000.26
2022-11-10T02:23:37.880Z,1000.20
2022-11-10T02:28:42.018Z,1000.18
2022-11-10T02:33:46.196Z,1000.24
2022-11-10T02:38:50.367Z,1000.15
2022-11-10T02:43:54.550Z,1000.18
2022-11-10T02:48:56.779Z,1000.29
2022-11-10T02:54:00.932Z,1000.40
2022-11-10T02:59:05.144Z,1000.46
2022-11-10T03:04:09.259Z,1000.48
2022-11-10T03:09:13.430Z,1000.52
2022-11-10T03:14:17.893Z,1000.71
2022-11-10T03:19:21.733Z,1000.75
2022-11-10T03:24:26.101Z,1000.33
2022-11-10T03:29:30.049Z,1000.41
2022-11-10T03:34:34.256Z,1000.33
2022-11-10T03:39:38.370Z,1000.20
2022-11-10T03:44:42.535Z,1000.38
2022-11-10T03:49:46.710Z,1000.37
2022-11-10T03:54:50.868Z,1000.45
2022-11-10T03:59:55.005Z,1000.49
2022-11-10T04:04:59.213Z,1000.63
2022-11-10T04:10:03.341Z,1000.69
2022-11-10T04:15:07.535Z,1000.72
2022-11-10T04:20:11.697Z,1000.71
2022-11-10T04:25:15.843Z,1000.95
2022-11-10T04:30:19.985Z,1000.94
2022-11-10T04:35:24.183Z,1000.87
2022-11-10T04:40:28.344Z,1000.81
2022-11-10T04:45:32.500Z,1000.85
2022-11-10T04:50:36.634Z,1000.97
2022-11-10T04:55:40.819Z,1001.07
2022-11-10T05:00:45.004Z,1001.09
2022-11-10T05:05:49.135Z,1001.03
2022-11-10T05:10:53.283Z,1000.98
2022-11-10T05:15:57.462Z,1000.85
2022-11-10T05:21:01.641Z,1000.76
2022-11-10T05:26:05.775Z,1000.66
2022-11-10T05:36:14.114Z,1000.64
2022-11-10T05:41:18.294Z,1000.74
2022-11-10T05:46:22.440Z,1000.81
2022-11-10T05:51:26.607Z,1000.82
2022-11-10T05:56:30.757Z,1000.75
2022-11-10T06:01:34.891Z,1000.69
2022-11-10T06:06:39.143Z,1000.66
2022-11-10T06:11:43.234Z,1000.83
2022-11-10T06:16:47.409Z,1001.05
2022-11-10T06:21:57.067Z,1001.11
2022-11-10T06:26:55.739Z,1001.05
2022-11-10T06:31:59.885Z,1001.30
2022-11-10T06:37:04.041Z,1001.52
2022-11-10T06:42:08.186Z,1001.67
2022-11-10T06:47:12.371Z,1001.82
2022-11-10T06:52:16.525Z,1001.75
2022-11-10T06:57:20.709Z,1001.69
2022-11-10T07:02:24.920Z,1001.78
2022-11-10T07:07:29.075Z,1001.78
2022-11-10T07:12:33.310Z,1001.96
2022-11-10T07:17:37.337Z,1002.08
2022-11-10T07:22:41.518Z,1002.06
2022-11-10T07:27:45.674Z,1002.18
2022-11-10T07:32:49.842Z,1002.12
2022-11-10T07:37:53.984Z,1002.20
2022-11-10T07:42:58.163Z,1002.35
2022-11-10T07:48:02.309Z,1002.47
2022-11-10T07:53:06.487Z,1002.65
2022-11-10T07:58:10.631Z,1002.89
2022-11-10T08:03:14.789Z,1003.04
2022-11-10T08:08:18.959Z,1003.25
2022-11-10T08:13:23.476Z,1003.30
2022-11-10T08:18:28.552Z,1003.45
2022-11-10T08:23:29.540Z,1003.51
2022-11-10T08:28:33.797Z,1003.72
2022-11-10T08:33:37.864Z,1003.79
2022-11-10T08:38:42.067Z,1003.94
2022-11-10T08:43:46.184Z,1004.06
2022-11-10T08:48:50.335Z,1004.38
2022-11-10T08:53:54.528Z,1004.54
2022-11-10T08:58:58.678Z,1004.75
2022-11-10T09:04:02.954Z,1004.94
2022-11-10T09:09:07.010Z,1005.20
2022-11-10T09:14:11.160Z,1005.23
2022-11-10T09:19:19.582Z,1005.25
2022-11-10T09:24:19.484Z,1005.44
2022-11-10T09:29:23.965Z,1005.56
2022-11-10T09:34:27.814Z,1005.53
2022-11-10T09:39:31.951Z,1005.75
2022-11-10T09:44:36.124Z,1005.95
2022-11-10T09:49:40.261Z,1006.12
2022-11-10T09:54:44.451Z,1006.36
2022-11-10T09:59:48.605Z,1006.62
2022-11-10T10:04:52.763Z,1006.94
2022-11-10T10:09:56.945Z,1007.01
2022-11-10T10:15:01.099Z,1007.18
2022-11-10T10:20:05.257Z,1007.27
2022-11-10T10:25:09.403Z,1007.42
2022-11-10T10:30:13.560Z,1007.36
2022-11-10T10:35:17.760Z,1007.59
2022-11-10T10:40:21.901Z,1007.82
2022-11-10T10:45:26.231Z,1007.78
2022-11-10T10:50:30.237Z,1007.94
2022-11-10T10:55:34.367Z,1008.14
2022-11-10T11:00:38.553Z,1008.21
2022-11-10T11:05:42.699Z,1008.22
2022-11-10T11:10:46.837Z,1008.45
2022-11-10T11:15:51.030Z,1008.56
2022-11-10T11:20:55.220Z,1008.75
2022-11-10T11:25:59.339Z,1008.97
2022-11-10T11:31:03.483Z,1008.92
2022-11-10T11:36:07.659Z,1009.12
2022-11-10T11:41:11.805Z,1009.35
2022-11-10T11:46:15.972Z,1009.52
2022-11-10T11:51:20.158Z,1009.67
2022-11-10T11:56:24.324Z,1009.80
2022-11-10T12:01:28.603Z,1009.96
2022-11-10T12:06:32.655Z,1009.97
2022-11-10T12:11:36.785Z,1010.16
2022-11-10T12:16:40.923Z,1009.95
2022-11-10T12:21:45.104Z,1010.13
2022-11-10T12:26:49.291Z,1010.27
2022-11-10T12:31:53.415Z,1010.59
2022-11-10T12:36:57.590Z,1010.61
2022-11-10T12:42:01.707Z,1010.85
2022-11-10T12:47:05.885Z,1011.11
2022-11-10T12:52:10.065Z,1011.06
2022-11-10T12:57:14.235Z,1011.17
2022-11-10T13:02:18.354Z,1011.31
2022-11-10T13:07:22.563Z,1011.44
2022-11-10T13:12:26.680Z,1011.51
2022-11-10T13:17:30.875Z,1011.46
2022-11-10T13:22:34.991Z,1011.69
2022-11-10T13:27:39.187Z,1012.04
2022-11-10T13:32:43.357Z,1012.19
2022-11-10T13:37:47.488Z,1012.28
2022-11-10T13:42:51.662Z,1012.31
2022-11-10T13:47:53.963Z,1012.23
2022-11-10T13:52:58.064Z,1012.38
2022-11-10T13:58:02.236Z,1012.36
2022-11-10T14:03:06.460Z,1012.33
2022-11-10T14:08:10.548Z,1012.34
2022-11-10T14:13:12.841Z,1012.40
2022-11-10T14:18:16.966Z,1012.19
2022-11-10T14:23:21.160Z,1012.15
2022-11-10T14:28:25.687Z,1012.21
2022-11-10T14:33:29.471Z,1012.09
2022-11-10T14:38:33.651Z,1012.20
2022-11-10T14:43:37.796Z,1012.45
2022-11-10T14:48:41.953Z,1012.34
2022-11-10T14:53:46.112Z,1012.38
2022-11-10T14:58:50.266Z,1012.22
2022-11-10T15:03:54.436Z,1012.10
2022-11-10T15:08:58.604Z,1012.13
2022-11-10T15:14:02.724Z,1012.27
2022-11-10T15:19:06.915Z,1012.33
2022-11-10T15:24:11.089Z,1012.29
2022-11-10T15:29:15.223Z,1012.24
2022-11-10T15:34:19.392Z,1012.12
2022-11-10T15:39:23.618Z,1012.18
2022-11-10T15:44:27.717Z,1012.07
2022-11-10T15:49:31.854Z,1011.96
2022-11-10T15:54:36.045Z,1011.88
2022-11-10T15:59:40.173Z,1011.80
2022-11-10T16:04:44.326Z,1011.75
2022-11-10T16:09:48.530Z,1011.83
2022-11-10T16:14:52.694Z,1011.89
2022-11-10T16:19:56.838Z,1011.97
2022-11-10T16:25:01.061Z,1012.13
2022-11-10T16:30:05.148Z,1012.33
2022-11-10T16:35:09.294Z,1012.21
2022-11-10T16:40:13.486Z,1012.24
2022-11-10T16:45:17.729Z,1012.24
2022-11-10T16:50:21.802Z,1012.12
2022-11-10T16:55:25.961Z,1011.98
2022-11-10T17:00:30.126Z,1012.06
2022-11-10T17:05:34.268Z,1012.10
2022-11-10T17:10:38.444Z,1012.26
2022-11-10T17:15:42.627Z,1012.14
2022-11-10T17:20:46.791Z,1012.18
2022-11-10T17:25:50.909Z,1012.01
2022-11-10T17:30:55.107Z,1012.23
2022-11-10T17:35:59.301Z,1012.05
2022-11-10T17:41:03.410Z,1011.54
2022-11-10T17:46:07.587Z,1011.32
2022-11-10T17:51:11.734Z,1011.18
2022-11-10T17:56:15.903Z,1010.92
2022-11-10T18:01:20.129Z,1010.76
2022-11-10T18:06:24.207Z,1010.62
2022-11-10T18:11:28.353Z,1010.56
2022-11-10T18:16:32.550Z,1010.61
2022-11-10T18:21:36.699Z,1010.61
2022-11-10T18:26:40.837Z,1010.66
2022-11-10T18:31:45.018Z,1010.57
2022-11-10T18:36:49.176Z,1010.56
2022-11-10T18:41:53.352Z,1010.47
2022-11-10T18:46:57.494Z,1010.48
2022-11-10T18:52:01.694Z,1010.57
2022-11-10T18:57:05.834Z,1010.48
2022-11-10T19:02:10.003Z,1010.26
2022-11-10T19:07:14.229Z,1010.25
2022-11-10T19:12:19.553Z,1010.38
2022-11-10T19:17:22.463Z,1010.45
2022-11-10T19:22:26.657Z,1010.27
2022-11-10T19:27:30.788Z,1010.36
2022-11-10T19:32:34.933Z,1010.58
2022-11-10T19:37:39.140Z,1010.69
2022-11-10T19:42:41.405Z,1010.74
2022-11-10T19:47:45.541Z,1010.82
2022-11-10T19:52:49.699Z,1010.98
2022-11-10T19:57:53.856Z,1010.91
2022-11-10T20:02:58.053Z,1011.09
2022-11-10T20:08:05.166Z,1011.14
2022-11-10T20:13:06.372Z,1011.26
2022-11-10T20:18:10.503Z,1011.45
2022-11-10T20:23:14.686Z,1011.49
2022-11-10T20:28:18.850Z,1011.52
2022-11-10T20:33:23.302Z,1011.49
2022-11-10T20:38:27.153Z,1011.40
2022-11-10T20:43:31.297Z,1011.43
2022-11-10T20:48:35.479Z,1011.41
2022-11-10T20:53:39.670Z,1011.41
2022-11-10T20:58:43.815Z,1011.57
2022-11-10T21:03:48.004Z,1011.59
2022-11-10T21:08:52.150Z,1011.66
2022-11-10T21:13:56.300Z,1011.70
2022-11-10T21:19:00.454Z,1011.76
2022-11-10T21:24:04.630Z,1011.89
2022-11-10T21:29:08.777Z,1011.90
2022-11-10T21:34:12.910Z,1011.89
2022-11-10T21:39:17.113Z,1011.85
2022-11-10T21:44:21.248Z,1011.93
2022-11-10T21:49:25.449Z,1012.03
2022-11-10T21:54:29.593Z,1012.14
2022-11-10T21:59:33.742Z,1012.07
2022-11-10T22:04:37.913Z,1011.80
2022-11-10T22:09:42.089Z,1011.71
2022-11-10T22:14:46.226Z,1011.89
2022-11-10T22:19:50.402Z,1012.04
2022-11-10T22:24:54.560Z,1012.12
2022-11-10T22:29:58.676Z,1012.26
2022-11-10T22:35:02.873Z,1012.15
2022-11-10T22:40:07.018Z,1012.18
2022-11-10T22:45:11.210Z,1012.17
2022-11-10T22:50:15.343Z,1012.20
2022-11-10T22:55:19.515Z,1012.04
2022-11-10T23:00:23.654Z,1011.92
2022-11-10T23:05:27.822Z,1011.84
2022-11-10T23:10:31.984Z,1012.00
2022-11-10T23:15:36.177Z,1011.94
2022-11-10T23:20:40.319Z,1012.08
2022-11-10T23:25:44.467Z,1012.14
2022-11-10T23:30:48.693Z,1012.00
2022-11-10T23:35:52.811Z,1011.88
2022-11-10T23:40:57.000Z,1011.84
2022-11-10T23:51:05.278Z,1011.34
2022-11-10T23:56:09.464Z,1011.65
